sensor_id;sensor_type;location;lat;lon;timestamp;temperature;humidity
28677;DHT22;15858;48.338;11.078;2023-05-29T00:01:38;12.40;99.90
28677;DHT22;15858;48.338;11.078;2023-05-29T00:04:04;12.30;99.90
28677;DHT22;15858;48.338;11.078;2023-05-29T00:06:31;12.20;99.90
28677;DHT22;15858;48.338;11.078;2023-05-29T00:08:58;12.30;99.90
28677;DHT22;15858;48.338;11.078;2023-05-29T00:11:24;12.20;99.90
28677;DHT22;15858;48.338;11.078;2023-05-29T00:13:51;12.20;99.90
28677;DHT22;15858;48.338;11.078;2023-05-29T00:16:18;12.00;99.90
28677;DHT22;15858;48.338;11.078;2023-05-29T00:18:44;12.00;99.90
28677;DHT22;15858;48.338;11.078;2023-05-29T00:21:12;12.00;99.90
28677;DHT22;15858;48.338;11.078;2023-05-29T00:23:39;12.00;99.90
28677;DHT22;15858;48.338;11.078;2023-05-29T00:26:06;12.00;99.90
28677;DHT22;15858;48.338;11.078;2023-05-29T00:28:34;12.10;99.90
28677;DHT22;15858;48.338;11.078;2023-05-29T00:31:00;12.10;99.90
28677;DHT22;15858;48.338;11.078;2023-05-29T00:33:27;12.00;99.90
28677;DHT22;15858;48.338;11.078;2023-05-29T00:35:54;12.00;99.90
28677;DHT22;15858;48.338;11.078;2023-05-29T00:38:21;11.90;99.90
28677;DHT22;15858;48.338;11.078;2023-05-29T00:40:48;11.90;99.90
28677;DHT22;15858;48.338;11.078;2023-05-29T00:43:14;11.90;99.90
28677;DHT22;15858;48.338;11.078;2023-05-29T00:45:41;11.80;99.90
28677;DHT22;15858;48.338;11.078;2023-05-29T00:48:08;11.60;99.90
28677;DHT22;15858;48.338;11.078;2023-05-29T00:50:35;11.50;99.90
28677;DHT22;15858;48.338;11.078;2023-05-29T00:53:02;11.50;99.90
28677;DHT22;15858;48.338;11.078;2023-05-29T00:55:29;11.60;99.90
28677;DHT22;15858;48.338;11.078;2023-05-29T00:57:57;11.60;99.90
28677;DHT22;15858;48.338;11.078;2023-05-29T01:00:24;11.60;99.90
28677;DHT22;15858;48.338;11.078;2023-05-29T01:02:51;11.60;99.90
28677;DHT22;15858;48.338;11.078;2023-05-29T01:05:18;11.70;99.90
28677;DHT22;15858;48.338;11.078;2023-05-29T01:07:45;11.60;99.90
28677;DHT22;15858;48.338;11.078;2023-05-29T01:10:12;11.60;99.90
28677;DHT22;15858;48.338;11.078;2023-05-29T01:13:16;11.50;99.90
28677;DHT22;15858;48.338;11.078;2023-05-29T01:21:42;11.50;99.90
28677;DHT22;15858;48.338;11.078;2023-05-29T01:24:48;11.60;99.90
28677;DHT22;15858;48.338;11.078;2023-05-29T01:27:11;11.40;99.90
28677;DHT22;15858;48.338;11.078;2023-05-29T01:29:41;11.30;99.90
28677;DHT22;15858;48.338;11.078;2023-05-29T01:32:10;11.30;99.90
28677;DHT22;15858;48.338;11.078;2023-05-29T01:34:37;11.30;99.90
28677;DHT22;15858;48.338;11.078;2023-05-29T01:37:04;11.30;99.90
28677;DHT22;15858;48.338;11.078;2023-05-29T01:39:32;11.30;99.90
28677;DHT22;15858;48.338;11.078;2023-05-29T01:42:00;11.20;99.90
28677;DHT22;15858;48.338;11.078;2023-05-29T01:44:28;11.10;99.90
28677;DHT22;15858;48.338;11.078;2023-05-29T01:46:56;11.20;99.90
28677;DHT22;15858;48.338;11.078;2023-05-29T01:49:24;11.20;99.90
28677;DHT22;15858;48.338;11.078;2023-05-29T01:51:51;11.20;99.90
28677;DHT22;15858;48.338;11.078;2023-05-29T01:54:17;11.20;99.90
28677;DHT22;15858;48.338;11.078;2023-05-29T01:56:45;11.20;99.90
28677;DHT22;15858;48.338;11.078;2023-05-29T01:59:13;11.20;99.90
28677;DHT22;15858;48.338;11.078;2023-05-29T02:01:40;11.10;99.90
28677;DHT22;15858;48.338;11.078;2023-05-29T02:04:07;11.00;99.90
28677;DHT22;15858;48.338;11.078;2023-05-29T02:06:34;11.00;99.90
28677;DHT22;15858;48.338;11.078;2023-05-29T02:09:01;11.00;99.90
28677;DHT22;15858;48.338;11.078;2023-05-29T02:11:27;10.90;99.90
28677;DHT22;15858;48.338;11.078;2023-05-29T02:13:54;10.80;99.90
28677;DHT22;15858;48.338;11.078;2023-05-29T02:16:21;10.80;99.90
28677;DHT22;15858;48.338;11.078;2023-05-29T02:18:47;10.90;99.90
28677;DHT22;15858;48.338;11.078;2023-05-29T02:21:14;10.90;99.90
28677;DHT22;15858;48.338;11.078;2023-05-29T02:23:41;10.80;99.90
28677;DHT22;15858;48.338;11.078;2023-05-29T02:26:07;10.90;99.90
28677;DHT22;15858;48.338;11.078;2023-05-29T02:28:34;10.90;99.90
28677;DHT22;15858;48.338;11.078;2023-05-29T02:31:02;10.90;99.90
28677;DHT22;15858;48.338;11.078;2023-05-29T02:33:29;10.90;99.90
28677;DHT22;15858;48.338;11.078;2023-05-29T02:35:55;10.80;99.90
28677;DHT22;15858;48.338;11.078;2023-05-29T02:38:22;10.80;99.90
28677;DHT22;15858;48.338;11.078;2023-05-29T02:40:48;10.80;99.90
28677;DHT22;15858;48.338;11.078;2023-05-29T02:43:15;10.70;99.90
28677;DHT22;15858;48.338;11.078;2023-05-29T02:45:42;10.70;99.90
28677;DHT22;15858;48.338;11.078;2023-05-29T02:48:08;10.70;99.90
28677;DHT22;15858;48.338;11.078;2023-05-29T02:50:35;10.70;99.90
28677;DHT22;15858;48.338;11.078;2023-05-29T02:53:02;10.70;99.90
28677;DHT22;15858;48.338;11.078;2023-05-29T02:55:29;10.60;99.90
28677;DHT22;15858;48.338;11.078;2023-05-29T02:57:55;10.50;99.90
28677;DHT22;15858;48.338;11.078;2023-05-29T03:00:22;10.50;99.90
28677;DHT22;15858;48.338;11.078;2023-05-29T03:02:48;10.50;99.90
28677;DHT22;15858;48.338;11.078;2023-05-29T03:05:15;10.50;99.90
28677;DHT22;15858;48.338;11.078;2023-05-29T03:07:42;10.50;99.90
28677;DHT22;15858;48.338;11.078;2023-05-29T03:10:09;10.50;99.90
28677;DHT22;15858;48.338;11.078;2023-05-29T03:12:36;10.50;99.90
28677;DHT22;15858;48.338;11.078;2023-05-29T03:15:02;10.40;99.90
28677;DHT22;15858;48.338;11.078;2023-05-29T03:17:29;10.40;99.90
28677;DHT22;15858;48.338;11.078;2023-05-29T03:19:56;10.40;99.90
28677;DHT22;15858;48.338;11.078;2023-05-29T03:22:22;10.40;99.90
28677;DHT22;15858;48.338;11.078;2023-05-29T03:24:49;10.40;99.90
28677;DHT22;15858;48.338;11.078;2023-05-29T03:27:16;10.40;99.90
28677;DHT22;15858;48.338;11.078;2023-05-29T03:29:42;10.40;99.90
28677;DHT22;15858;48.338;11.078;2023-05-29T03:32:09;10.40;99.90
28677;DHT22;15858;48.338;11.078;2023-05-29T03:34:35;10.40;99.90
28677;DHT22;15858;48.338;11.078;2023-05-29T03:37:02;10.50;99.90
28677;DHT22;15858;48.338;11.078;2023-05-29T03:39:29;10.50;99.90
28677;DHT22;15858;48.338;11.078;2023-05-29T03:41:56;10.50;99.90
28677;DHT22;15858;48.338;11.078;2023-05-29T03:44:22;10.50;99.90
28677;DHT22;15858;48.338;11.078;2023-05-29T03:46:50;10.50;99.90
28677;DHT22;15858;48.338;11.078;2023-05-29T03:49:17;10.50;99.90
28677;DHT22;15858;48.338;11.078;2023-05-29T03:51:44;10.50;99.90
28677;DHT22;15858;48.338;11.078;2023-05-29T03:54:10;10.50;99.90
28677;DHT22;15858;48.338;11.078;2023-05-29T03:56:37;10.60;99.90
28677;DHT22;15858;48.338;11.078;2023-05-29T03:59:04;10.70;99.90
28677;DHT22;15858;48.338;11.078;2023-05-29T04:01:30;10.60;99.90
28677;DHT22;15858;48.338;11.078;2023-05-29T04:03:57;10.60;99.90
28677;DHT22;15858;48.338;11.078;2023-05-29T04:06:24;10.60;99.90
28677;DHT22;15858;48.338;11.078;2023-05-29T04:08:50;10.70;99.90
28677;DHT22;15858;48.338;11.078;2023-05-29T04:11:17;10.70;99.90
28677;DHT22;15858;48.338;11.078;2023-05-29T04:13:44;10.80;99.90
28677;DHT22;15858;48.338;11.078;2023-05-29T04:16:10;10.90;99.90
28677;DHT22;15858;48.338;11.078;2023-05-29T04:18:37;11.00;99.90
28677;DHT22;15858;48.338;11.078;2023-05-29T04:21:04;11.00;99.90
28677;DHT22;15858;48.338;11.078;2023-05-29T04:23:30;11.10;99.90
28677;DHT22;15858;48.338;11.078;2023-05-29T04:25:57;11.10;99.90
28677;DHT22;15858;48.338;11.078;2023-05-29T04:28:24;11.20;99.90
28677;DHT22;15858;48.338;11.078;2023-05-29T04:30:50;11.30;99.90
28677;DHT22;15858;48.338;11.078;2023-05-29T04:33:18;11.30;99.90
28677;DHT22;15858;48.338;11.078;2023-05-29T04:35:44;11.40;99.90
28677;DHT22;15858;48.338;11.078;2023-05-29T04:38:11;11.40;99.90
28677;DHT22;15858;48.338;11.078;2023-05-29T04:40:37;11.40;99.90
28677;DHT22;15858;48.338;11.078;2023-05-29T04:43:04;11.50;99.90
28677;DHT22;15858;48.338;11.078;2023-05-29T04:45:31;11.60;99.90
28677;DHT22;15858;48.338;11.078;2023-05-29T04:47:57;11.60;99.90
28677;DHT22;15858;48.338;11.078;2023-05-29T04:50:24;11.70;99.90
28677;DHT22;15858;48.338;11.078;2023-05-29T04:52:51;11.90;99.90
28677;DHT22;15858;48.338;11.078;2023-05-29T04:55:17;12.00;99.90
28677;DHT22;15858;48.338;11.078;2023-05-29T04:57:44;12.10;99.90
28677;DHT22;15858;48.338;11.078;2023-05-29T05:00:11;12.20;99.90
28677;DHT22;15858;48.338;11.078;2023-05-29T05:02:38;12.30;99.90
28677;DHT22;15858;48.338;11.078;2023-05-29T05:05:05;12.40;99.90
28677;DHT22;15858;48.338;11.078;2023-05-29T05:07:31;12.50;99.90
28677;DHT22;15858;48.338;11.078;2023-05-29T05:09:58;12.60;99.90
28677;DHT22;15858;48.338;11.078;2023-05-29T05:12:24;12.70;99.90
28677;DHT22;15858;48.338;11.078;2023-05-29T05:14:51;12.90;99.90
28677;DHT22;15858;48.338;11.078;2023-05-29T05:17:18;13.00;99.90
28677;DHT22;15858;48.338;11.078;2023-05-29T05:19:44;13.10;99.90
28677;DHT22;15858;48.338;11.078;2023-05-29T05:22:11;13.20;99.90
28677;DHT22;15858;48.338;11.078;2023-05-29T05:24:38;13.30;99.90
28677;DHT22;15858;48.338;11.078;2023-05-29T05:27:04;13.50;99.90
28677;DHT22;15858;48.338;11.078;2023-05-29T05:29:31;13.50;99.90
28677;DHT22;15858;48.338;11.078;2023-05-29T05:31:58;13.70;99.90
28677;DHT22;15858;48.338;11.078;2023-05-29T05:34:25;13.80;99.90
28677;DHT22;15858;48.338;11.078;2023-05-29T05:36:51;13.90;99.90
28677;DHT22;15858;48.338;11.078;2023-05-29T05:39:18;13.90;99.90
28677;DHT22;15858;48.338;11.078;2023-05-29T05:41:45;14.00;99.90
28677;DHT22;15858;48.338;11.078;2023-05-29T05:44:11;14.10;99.90
28677;DHT22;15858;48.338;11.078;2023-05-29T05:46:38;14.20;99.90
28677;DHT22;15858;48.338;11.078;2023-05-29T05:49:05;14.20;99.90
28677;DHT22;15858;48.338;11.078;2023-05-29T05:51:31;14.30;99.90
28677;DHT22;15858;48.338;11.078;2023-05-29T05:53:58;14.40;99.90
28677;DHT22;15858;48.338;11.078;2023-05-29T05:56:25;14.60;99.90
28677;DHT22;15858;48.338;11.078;2023-05-29T05:58:51;14.80;99.90
28677;DHT22;15858;48.338;11.078;2023-05-29T06:01:18;14.90;99.90
28677;DHT22;15858;48.338;11.078;2023-05-29T06:03:45;15.10;99.90
28677;DHT22;15858;48.338;11.078;2023-05-29T06:06:11;15.20;99.90
28677;DHT22;15858;48.338;11.078;2023-05-29T06:08:38;15.20;99.90
28677;DHT22;15858;48.338;11.078;2023-05-29T06:11:05;15.40;99.90
28677;DHT22;15858;48.338;11.078;2023-05-29T06:13:31;15.50;99.90
28677;DHT22;15858;48.338;11.078;2023-05-29T06:15:58;15.60;99.90
28677;DHT22;15858;48.338;11.078;2023-05-29T06:18:25;15.60;99.90
28677;DHT22;15858;48.338;11.078;2023-05-29T06:20:51;15.70;99.90
28677;DHT22;15858;48.338;11.078;2023-05-29T06:23:18;15.80;99.90
28677;DHT22;15858;48.338;11.078;2023-05-29T06:25:45;15.90;99.90
28677;DHT22;15858;48.338;11.078;2023-05-29T06:28:11;15.90;99.90
28677;DHT22;15858;48.338;11.078;2023-05-29T06:30:39;16.10;99.90
28677;DHT22;15858;48.338;11.078;2023-05-29T06:33:05;16.20;99.90
28677;DHT22;15858;48.338;11.078;2023-05-29T06:35:32;16.20;99.90
28677;DHT22;15858;48.338;11.078;2023-05-29T06:37:59;16.30;99.90
28677;DHT22;15858;48.338;11.078;2023-05-29T06:40:25;16.30;99.90
28677;DHT22;15858;48.338;11.078;2023-05-29T06:42:52;16.40;99.90
28677;DHT22;15858;48.338;11.078;2023-05-29T06:45:19;16.50;99.90
28677;DHT22;15858;48.338;11.078;2023-05-29T06:47:45;16.60;99.90
28677;DHT22;15858;48.338;11.078;2023-05-29T06:50:13;16.60;99.90
28677;DHT22;15858;48.338;11.078;2023-05-29T06:52:40;16.70;99.90
28677;DHT22;15858;48.338;11.078;2023-05-29T06:55:07;16.70;99.90
28677;DHT22;15858;48.338;11.078;2023-05-29T06:57:34;16.80;99.90
28677;DHT22;15858;48.338;11.078;2023-05-29T07:00:00;17.00;99.90
28677;DHT22;15858;48.338;11.078;2023-05-29T07:02:27;17.00;99.90
28677;DHT22;15858;48.338;11.078;2023-05-29T07:04:54;17.10;99.90
28677;DHT22;15858;48.338;11.078;2023-05-29T07:07:20;17.30;99.90
28677;DHT22;15858;48.338;11.078;2023-05-29T07:09:47;17.40;99.90
28677;DHT22;15858;48.338;11.078;2023-05-29T07:12:14;17.50;99.90
28677;DHT22;15858;48.338;11.078;2023-05-29T07:14:41;17.50;99.90
28677;DHT22;15858;48.338;11.078;2023-05-29T07:17:07;17.60;99.90
28677;DHT22;15858;48.338;11.078;2023-05-29T07:19:34;17.70;99.90
28677;DHT22;15858;48.338;11.078;2023-05-29T07:22:01;17.80;99.90
28677;DHT22;15858;48.338;11.078;2023-05-29T07:24:27;17.90;99.90
28677;DHT22;15858;48.338;11.078;2023-05-29T07:26:54;18.10;99.90
28677;DHT22;15858;48.338;11.078;2023-05-29T07:29:21;18.20;99.90
28677;DHT22;15858;48.338;11.078;2023-05-29T07:31:47;18.10;99.90
28677;DHT22;15858;48.338;11.078;2023-05-29T07:34:14;18.20;99.90
28677;DHT22;15858;48.338;11.078;2023-05-29T07:36:56;18.30;99.90
28677;DHT22;15858;48.338;11.078;2023-05-29T07:39:24;18.30;99.90
28677;DHT22;15858;48.338;11.078;2023-05-29T07:41:50;18.40;99.90
28677;DHT22;15858;48.338;11.078;2023-05-29T07:44:17;18.50;99.90
28677;DHT22;15858;48.338;11.078;2023-05-29T07:46:44;18.60;99.90
28677;DHT22;15858;48.338;11.078;2023-05-29T07:49:11;18.60;99.90
28677;DHT22;15858;48.338;11.078;2023-05-29T07:51:38;18.80;99.90
28677;DHT22;15858;48.338;11.078;2023-05-29T07:54:05;19.00;99.90
28677;DHT22;15858;48.338;11.078;2023-05-29T07:56:32;19.10;99.90
28677;DHT22;15858;48.338;11.078;2023-05-29T07:58:58;19.20;99.90
28677;DHT22;15858;48.338;11.078;2023-05-29T08:01:25;19.20;99.90
28677;DHT22;15858;48.338;11.078;2023-05-29T08:03:52;19.20;99.90
28677;DHT22;15858;48.338;11.078;2023-05-29T08:06:19;19.30;99.90
28677;DHT22;15858;48.338;11.078;2023-05-29T08:08:45;19.40;99.90
28677;DHT22;15858;48.338;11.078;2023-05-29T08:11:12;19.50;99.90
28677;DHT22;15858;48.338;11.078;2023-05-29T08:13:39;19.50;99.90
28677;DHT22;15858;48.338;11.078;2023-05-29T08:16:06;19.60;99.90
28677;DHT22;15858;48.338;11.078;2023-05-29T08:18:32;19.70;99.90
28677;DHT22;15858;48.338;11.078;2023-05-29T08:20:59;19.90;99.90
28677;DHT22;15858;48.338;11.078;2023-05-29T08:23:26;20.10;99.90
28677;DHT22;15858;48.338;11.078;2023-05-29T08:25:53;20.20;99.90
28677;DHT22;15858;48.338;11.078;2023-05-29T08:28:21;20.20;99.90
28677;DHT22;15858;48.338;11.078;2023-05-29T08:30:48;20.30;99.90
28677;DHT22;15858;48.338;11.078;2023-05-29T08:33:14;20.30;99.90
28677;DHT22;15858;48.338;11.078;2023-05-29T08:35:41;20.40;99.90
28677;DHT22;15858;48.338;11.078;2023-05-29T08:38:08;20.60;99.90
28677;DHT22;15858;48.338;11.078;2023-05-29T08:40:34;20.50;99.90
28677;DHT22;15858;48.338;11.078;2023-05-29T08:43:13;20.70;99.90
28677;DHT22;15858;48.338;11.078;2023-05-29T08:45:45;20.80;99.90
28677;DHT22;15858;48.338;11.078;2023-05-29T08:48:12;20.80;99.90
28677;DHT22;15858;48.338;11.078;2023-05-29T08:50:44;20.90;99.90
28677;DHT22;15858;48.338;11.078;2023-05-29T08:53:13;20.90;99.90
28677;DHT22;15858;48.338;11.078;2023-05-29T08:55:40;20.90;99.90
28677;DHT22;15858;48.338;11.078;2023-05-29T08:58:07;21.00;99.90
28677;DHT22;15858;48.338;11.078;2023-05-29T09:00:34;21.10;99.90
28677;DHT22;15858;48.338;11.078;2023-05-29T09:03:01;21.30;99.90
28677;DHT22;15858;48.338;11.078;2023-05-29T09:05:28;21.30;99.90
28677;DHT22;15858;48.338;11.078;2023-05-29T09:07:56;21.20;99.90
28677;DHT22;15858;48.338;11.078;2023-05-29T09:10:23;21.20;99.90
28677;DHT22;15858;48.338;11.078;2023-05-29T09:12:50;21.30;99.90
28677;DHT22;15858;48.338;11.078;2023-05-29T09:15:21;21.40;99.90
28677;DHT22;15858;48.338;11.078;2023-05-29T09:17:52;21.40;99.90
28677;DHT22;15858;48.338;11.078;2023-05-29T09:20:20;21.50;99.90
28677;DHT22;15858;48.338;11.078;2023-05-29T09:23:01;21.70;99.90
28677;DHT22;15858;48.338;11.078;2023-05-29T09:25:29;21.80;99.90
28677;DHT22;15858;48.338;11.078;2023-05-29T09:28:06;21.80;99.90
28677;DHT22;15858;48.338;11.078;2023-05-29T09:30:42;21.90;99.40
28677;DHT22;15858;48.338;11.078;2023-05-29T09:33:14;22.00;99.90
28677;DHT22;15858;48.338;11.078;2023-05-29T09:35:46;22.10;98.80
28677;DHT22;15858;48.338;11.078;2023-05-29T09:38:17;22.20;97.60
28677;DHT22;15858;48.338;11.078;2023-05-29T09:41:05;22.10;95.90
28677;DHT22;15858;48.338;11.078;2023-05-29T09:43:31;22.00;98.10
28677;DHT22;15858;48.338;11.078;2023-05-29T09:45:58;22.10;96.10
28677;DHT22;15858;48.338;11.078;2023-05-29T09:48:27;22.00;95.60
28677;DHT22;15858;48.338;11.078;2023-05-29T09:50:54;22.00;97.30
28677;DHT22;15858;48.338;11.078;2023-05-29T09:53:23;22.10;95.80
28677;DHT22;15858;48.338;11.078;2023-05-29T09:55:50;22.20;96.50
28677;DHT22;15858;48.338;11.078;2023-05-29T09:58:18;22.30;93.30
28677;DHT22;15858;48.338;11.078;2023-05-29T10:00:45;22.50;93.40
28677;DHT22;15858;48.338;11.078;2023-05-29T10:03:12;22.50;92.60
28677;DHT22;15858;48.338;11.078;2023-05-29T10:05:40;22.30;92.80
28677;DHT22;15858;48.338;11.078;2023-05-29T10:08:14;22.40;95.20
28677;DHT22;15858;48.338;11.078;2023-05-29T10:10:43;22.40;95.40
28677;DHT22;15858;48.338;11.078;2023-05-29T10:13:11;22.60;93.90
28677;DHT22;15858;48.338;11.078;2023-05-29T10:15:41;22.80;94.70
28677;DHT22;15858;48.338;11.078;2023-05-29T10:18:29;22.70;93.60
28677;DHT22;15858;48.338;11.078;2023-05-29T10:20:58;22.90;92.40
28677;DHT22;15858;48.338;11.078;2023-05-29T10:23:28;23.00;92.30
28677;DHT22;15858;48.338;11.078;2023-05-29T10:26:08;23.10;92.50
28677;DHT22;15858;48.338;11.078;2023-05-29T10:28:40;23.00;91.20
28677;DHT22;15858;48.338;11.078;2023-05-29T10:31:11;23.10;92.20
28677;DHT22;15858;48.338;11.078;2023-05-29T10:36:38;23.10;91.60
28677;DHT22;15858;48.338;11.078;2023-05-29T10:39:07;23.20;91.70
28677;DHT22;15858;48.338;11.078;2023-05-29T10:41:33;23.20;87.40
28677;DHT22;15858;48.338;11.078;2023-05-29T10:44:01;23.40;91.50
28677;DHT22;15858;48.338;11.078;2023-05-29T10:49:19;23.70;89.50
28677;DHT22;15858;48.338;11.078;2023-05-29T10:51:47;23.60;88.20
28677;DHT22;15858;48.338;11.078;2023-05-29T10:54:14;23.80;84.50
28677;DHT22;15858;48.338;11.078;2023-05-29T10:56:41;23.80;88.10
28677;DHT22;15858;48.338;11.078;2023-05-29T10:59:10;23.70;86.70
28677;DHT22;15858;48.338;11.078;2023-05-29T11:01:40;23.80;87.20
28677;DHT22;15858;48.338;11.078;2023-05-29T11:04:25;23.80;87.30
28677;DHT22;15858;48.338;11.078;2023-05-29T11:06:52;23.90;89.40
28677;DHT22;15858;48.338;11.078;2023-05-29T11:09:39;24.10;82.90
28677;DHT22;15858;48.338;11.078;2023-05-29T11:14:56;24.30;85.80
28677;DHT22;15858;48.338;11.078;2023-05-29T11:19:57;24.30;81.20
28677;DHT22;15858;48.338;11.078;2023-05-29T11:22:29;24.20;81.90
28677;DHT22;15858;48.338;11.078;2023-05-29T11:25:00;24.20;80.20
28677;DHT22;15858;48.338;11.078;2023-05-29T11:27:27;24.30;78.80
28677;DHT22;15858;48.338;11.078;2023-05-29T11:29:56;24.40;80.20
28677;DHT22;15858;48.338;11.078;2023-05-29T11:32:26;24.40;81.10
28677;DHT22;15858;48.338;11.078;2023-05-29T11:34:55;24.30;74.30
28677;DHT22;15858;48.338;11.078;2023-05-29T11:37:22;24.30;81.80
28677;DHT22;15858;48.338;11.078;2023-05-29T11:39:51;24.30;79.30
28677;DHT22;15858;48.338;11.078;2023-05-29T11:42:18;24.40;79.20
28677;DHT22;15858;48.338;11.078;2023-05-29T11:44:44;24.60;77.70
28677;DHT22;15858;48.338;11.078;2023-05-29T11:47:11;24.60;83.40
28677;DHT22;15858;48.338;11.078;2023-05-29T11:49:38;24.80;80.40
28677;DHT22;15858;48.338;11.078;2023-05-29T11:52:12;24.90;82.00
28677;DHT22;15858;48.338;11.078;2023-05-29T11:54:43;25.10;79.70
28677;DHT22;15858;48.338;11.078;2023-05-29T11:57:10;24.80;78.70
28677;DHT22;15858;48.338;11.078;2023-05-29T11:59:36;24.50;79.10
28677;DHT22;15858;48.338;11.078;2023-05-29T12:02:03;24.30;80.30
28677;DHT22;15858;48.338;11.078;2023-05-29T12:04:30;23.80;79.90
28677;DHT22;15858;48.338;11.078;2023-05-29T12:06:56;23.90;79.00
28677;DHT22;15858;48.338;11.078;2023-05-29T12:09:24;24.10;79.10
28677;DHT22;15858;48.338;11.078;2023-05-29T12:11:51;24.30;78.00
28677;DHT22;15858;48.338;11.078;2023-05-29T12:14:17;24.30;77.00
28677;DHT22;15858;48.338;11.078;2023-05-29T12:16:44;24.30;78.00
28677;DHT22;15858;48.338;11.078;2023-05-29T12:19:12;24.40;76.80
28677;DHT22;15858;48.338;11.078;2023-05-29T12:21:41;24.50;74.50
28677;DHT22;15858;48.338;11.078;2023-05-29T12:24:08;24.50;80.20
28677;DHT22;15858;48.338;11.078;2023-05-29T12:26:41;24.20;75.20
28677;DHT22;15858;48.338;11.078;2023-05-29T12:29:08;24.00;79.10
28677;DHT22;15858;48.338;11.078;2023-05-29T12:31:35;24.10;78.60
28677;DHT22;15858;48.338;11.078;2023-05-29T12:34:07;24.20;76.50
28677;DHT22;15858;48.338;11.078;2023-05-29T12:36:34;24.50;76.80
28677;DHT22;15858;48.338;11.078;2023-05-29T12:39:05;24.60;75.30
28677;DHT22;15858;48.338;11.078;2023-05-29T12:41:37;24.60;73.80
28677;DHT22;15858;48.338;11.078;2023-05-29T12:44:05;24.80;73.30
28677;DHT22;15858;48.338;11.078;2023-05-29T12:46:40;24.80;76.80
28677;DHT22;15858;48.338;11.078;2023-05-29T12:49:17;24.90;78.70
28677;DHT22;15858;48.338;11.078;2023-05-29T12:51:45;24.90;74.90
28677;DHT22;15858;48.338;11.078;2023-05-29T12:54:15;24.90;76.30
28677;DHT22;15858;48.338;11.078;2023-05-29T12:56:42;24.90;77.00
28677;DHT22;15858;48.338;11.078;2023-05-29T12:59:10;24.90;74.30
28677;DHT22;15858;48.338;11.078;2023-05-29T13:01:37;25.00;74.90
28677;DHT22;15858;48.338;11.078;2023-05-29T13:04:04;25.00;75.00
28677;DHT22;15858;48.338;11.078;2023-05-29T13:06:32;25.10;74.50
28677;DHT22;15858;48.338;11.078;2023-05-29T13:08:58;25.00;78.20
28677;DHT22;15858;48.338;11.078;2023-05-29T13:11:25;24.90;76.00
28677;DHT22;15858;48.338;11.078;2023-05-29T13:13:52;24.90;76.70
28677;DHT22;15858;48.338;11.078;2023-05-29T13:16:18;25.10;75.30
28677;DHT22;15858;48.338;11.078;2023-05-29T13:18:45;25.30;73.10
28677;DHT22;15858;48.338;11.078;2023-05-29T13:21:12;25.30;72.90
28677;DHT22;15858;48.338;11.078;2023-05-29T13:23:38;25.50;70.00
28677;DHT22;15858;48.338;11.078;2023-05-29T13:26:05;25.40;74.30
28677;DHT22;15858;48.338;11.078;2023-05-29T13:28:32;25.10;73.40
28677;DHT22;15858;48.338;11.078;2023-05-29T13:30:58;25.10;72.10
28677;DHT22;15858;48.338;11.078;2023-05-29T13:33:25;24.50;71.90
28677;DHT22;15858;48.338;11.078;2023-05-29T13:35:52;24.40;73.50
28677;DHT22;15858;48.338;11.078;2023-05-29T13:38:21;24.40;74.80
28677;DHT22;15858;48.338;11.078;2023-05-29T13:40:48;24.60;70.30
28677;DHT22;15858;48.338;11.078;2023-05-29T13:43:14;24.70;71.90
28677;DHT22;15858;48.338;11.078;2023-05-29T13:45:41;24.80;71.50
28677;DHT22;15858;48.338;11.078;2023-05-29T13:48:07;24.80;73.80
28677;DHT22;15858;48.338;11.078;2023-05-29T13:50:34;24.90;73.30
28677;DHT22;15858;48.338;11.078;2023-05-29T13:53:01;25.10;71.60
28677;DHT22;15858;48.338;11.078;2023-05-29T13:55:27;25.00;68.30
28677;DHT22;15858;48.338;11.078;2023-05-29T13:57:54;25.00;68.20
28677;DHT22;15858;48.338;11.078;2023-05-29T14:00:20;24.80;68.20
28677;DHT22;15858;48.338;11.078;2023-05-29T14:02:47;24.90;68.10
28677;DHT22;15858;48.338;11.078;2023-05-29T14:05:14;24.80;71.00
28677;DHT22;15858;48.338;11.078;2023-05-29T14:07:41;24.80;70.00
28677;DHT22;15858;48.338;11.078;2023-05-29T14:10:07;24.80;70.70
28677;DHT22;15858;48.338;11.078;2023-05-29T14:12:37;24.70;70.40
28677;DHT22;15858;48.338;11.078;2023-05-29T14:15:04;24.70;69.30
28677;DHT22;15858;48.338;11.078;2023-05-29T14:17:31;24.70;71.10
28677;DHT22;15858;48.338;11.078;2023-05-29T14:19:57;24.70;69.00
28677;DHT22;15858;48.338;11.078;2023-05-29T14:22:24;24.50;68.00
28677;DHT22;15858;48.338;11.078;2023-05-29T14:24:50;24.50;70.10
28677;DHT22;15858;48.338;11.078;2023-05-29T14:27:17;24.40;69.50
28677;DHT22;15858;48.338;11.078;2023-05-29T14:29:44;24.30;70.30
28677;DHT22;15858;48.338;11.078;2023-05-29T14:32:10;24.40;71.60
28677;DHT22;15858;48.338;11.078;2023-05-29T14:34:37;24.60;68.90
28677;DHT22;15858;48.338;11.078;2023-05-29T14:37:04;24.60;69.90
28677;DHT22;15858;48.338;11.078;2023-05-29T14:39:30;24.60;71.10
28677;DHT22;15858;48.338;11.078;2023-05-29T14:41:57;24.50;67.60
28677;DHT22;15858;48.338;11.078;2023-05-29T14:44:24;24.40;66.70
28677;DHT22;15858;48.338;11.078;2023-05-29T14:46:50;24.30;67.20
28677;DHT22;15858;48.338;11.078;2023-05-29T14:49:17;24.30;64.20
28677;DHT22;15858;48.338;11.078;2023-05-29T14:51:43;24.30;66.10
28677;DHT22;15858;48.338;11.078;2023-05-29T14:54:10;24.40;65.30
28677;DHT22;15858;48.338;11.078;2023-05-29T14:56:37;24.50;63.90
28677;DHT22;15858;48.338;11.078;2023-05-29T14:59:04;24.50;64.20
28677;DHT22;15858;48.338;11.078;2023-05-29T15:01:30;24.30;63.00
28677;DHT22;15858;48.338;11.078;2023-05-29T15:03:57;24.30;65.10
28677;DHT22;15858;48.338;11.078;2023-05-29T15:06:24;24.30;63.50
28677;DHT22;15858;48.338;11.078;2023-05-29T15:08:50;24.40;65.10
28677;DHT22;15858;48.338;11.078;2023-05-29T15:11:18;24.40;61.60
28677;DHT22;15858;48.338;11.078;2023-05-29T15:13:46;24.50;63.60
28677;DHT22;15858;48.338;11.078;2023-05-29T15:16:12;24.50;63.00
28677;DHT22;15858;48.338;11.078;2023-05-29T15:18:39;24.60;60.10
28677;DHT22;15858;48.338;11.078;2023-05-29T15:21:06;24.60;60.70
28677;DHT22;15858;48.338;11.078;2023-05-29T15:23:33;24.60;62.20
28677;DHT22;15858;48.338;11.078;2023-05-29T15:25:59;24.50;63.30
28677;DHT22;15858;48.338;11.078;2023-05-29T15:28:27;24.40;63.00
28677;DHT22;15858;48.338;11.078;2023-05-29T15:30:53;24.50;62.10
28677;DHT22;15858;48.338;11.078;2023-05-29T15:33:20;24.50;62.10
28677;DHT22;15858;48.338;11.078;2023-05-29T15:35:47;24.50;60.10